Time;durP1;ratioP1;P1;durP2;ratioP2;P2;SDS_P1;SDS_P2;PMS_P1;PMS_P2;Temp;Humidity;BMP_temperature;BMP_pressure;BME280_temperature;BME280_humidity;BME280_pressure;Samples;Min_cycle;Max_cycle;Signal;HPM_P1;HPM_P2
2022/10/27 00:01:16;;;;;;;0.65;0.65;;;;;;;;;;5016867;28;20033;-71
2022/10/27 00:03:41;;;;;;;0.20;0.20;;;;;;;;;;5023567;28;20481;-71
2022/10/27 00:06:07;;;;;;;0.20;0.20;;;;;;;;;;5015328;28;20038;-71
2022/10/27 00:08:32;;;;;;;0.13;0.13;;;;;;;;;;5015149;28;20033;-72
2022/10/27 00:10:59;;;;;;;0.68;0.68;;;;;;;;;;5026823;28;20029;-71
2022/10/27 00:13:25;;;;;;;0.10;0.10;;;;;;;;;;4997250;28;20029;-71
2022/10/27 00:16:01;;;;;;;0.20;0.20;;;;;;;;;;5014895;28;20034;-72
2022/10/27 00:18:27;;;;;;;0.10;0.10;;;;;;;;;;5014716;28;20025;-73
2022/10/27 00:20:58;;;;;;;0.25;0.25;;;;;;;;;;5014766;28;20386;-72
2022/10/27 00:23:23;;;;;;;0.10;0.10;;;;;;;;;;5014410;28;20029;-72
2022/10/27 00:25:53;;;;;;;0.15;0.15;;;;;;;;;;5014667;28;20033;-73
2022/10/27 00:28:18;;;;;;;;;;;;;;;;;;5014945;28;20507;-72
2022/10/27 00:30:43;;;;;;;0.40;0.40;;;;;;;;;;5014476;28;19996;-72
2022/10/27 00:33:09;;;;;;;0.65;0.65;;;;;;;;;;5014773;28;20261;-73
2022/10/27 00:35:37;;;;;;;0.10;0.10;;;;;;;;;;5014471;28;20029;-72
2022/10/27 00:38:02;;;;;;;0.10;0.10;;;;;;;;;;5014479;28;20033;-72
2022/10/27 00:40:28;;;;;;;0.10;0.10;;;;;;;;;;5018808;28;20026;-73
2022/10/27 00:42:53;;;;;;;0.10;0.10;;;;;;;;;;5031333;28;20045;-73
2022/10/27 00:45:19;;;;;;;0.10;0.10;;;;;;;;;;5029497;28;20030;-72
2022/10/27 00:47:45;;;;;;;3.33;3.10;;;;;;;;;;5033985;28;20052;-72
2022/10/27 00:50:19;;;;;;;0.45;0.45;;;;;;;;;;5032595;28;20424;-72
2022/10/27 00:52:44;;;;;;;0.20;0.20;;;;;;;;;;5016224;28;20424;-71
2022/10/27 00:55:19;;;;;;;0.13;0.13;;;;;;;;;;5016125;28;20087;-72
2022/10/27 00:57:46;;;;;;;0.13;0.13;;;;;;;;;;5033764;28;20075;-73
2022/10/27 01:00:12;;;;;;;0.10;0.10;;;;;;;;;;5032576;28;20049;-73
2022/10/27 01:02:38;;;;;;;1.48;1.38;;;;;;;;;;5033718;28;20064;-72
2022/10/27 01:05:11;;;;;;;0.40;0.40;;;;;;;;;;5034134;28;20037;-73
2022/10/27 01:07:37;;;;;;;1.17;0.85;;;;;;;;;;5033809;28;20124;-72
2022/10/27 01:10:03;;;;;;;0.20;0.20;;;;;;;;;;5032618;28;20087;-73
2022/10/27 01:12:29;;;;;;;3.38;1.95;;;;;;;;;;5015627;28;20033;-73
2022/10/27 01:14:54;;;;;;;1.35;1.30;;;;;;;;;;5033246;28;20533;-74
2022/10/27 01:17:20;;;;;;;0.10;0.10;;;;;;;;;;5015938;28;20040;-74
2022/10/27 01:19:45;;;;;;;0.10;0.10;;;;;;;;;;5032857;28;20496;-73
2022/10/27 01:22:26;;;;;;;1.98;1.88;;;;;;;;;;5015797;28;20132;-73
2022/10/27 01:25:12;;;;;;;0.20;0.20;;;;;;;;;;5033376;28;20028;-73
2022/10/27 01:27:37;;;;;;;0.57;0.57;;;;;;;;;;5022014;28;20377;-73
2022/10/27 01:30:02;;;;;;;1.88;1.77;;;;;;;;;;5015717;28;20075;-74
2022/10/27 01:32:37;;;;;;;0.10;0.10;;;;;;;;;;5033258;28;20048;-73
2022/10/27 01:35:16;;;;;;;0.20;0.20;;;;;;;;;;5014327;28;20112;-74
2022/10/27 01:37:51;;;;;;;0.10;0.10;;;;;;;;;;5033036;28;20037;-73
2022/10/27 01:40:25;;;;;;;11.93;8.85;;;;;;;;;;5033148;28;20022;-73
2022/10/27 01:42:55;;;;;;;0.10;0.10;;;;;;;;;;5014974;28;20457;-73
2022/10/27 01:45:27;;;;;;;0.10;0.10;;;;;;;;;;5032662;28;20112;-73
2022/10/27 01:47:53;;;;;;;0.75;0.75;;;;;;;;;;4998740;28;20099;-74
2022/10/27 01:50:23;;;;;;;1.33;1.25;;;;;;;;;;5031903;28;20053;-73
2022/10/27 01:52:49;;;;;;;0.10;0.10;;;;;;;;;;5032992;28;20071;-73
2022/10/27 01:55:17;;;;;;;1.52;1.38;;;;;;;;;;5033081;28;20385;-73
2022/10/27 01:57:55;;;;;;;0.20;0.20;;;;;;;;;;5015574;28;20073;-73
2022/10/27 02:00:21;;;;;;;1.40;1.38;;;;;;;;;;5033100;28;20064;-73
2022/10/27 02:02:49;;;;;;;0.10;0.10;;;;;;;;;;5032933;28;20061;-73
2022/10/27 02:05:50;;;;;;;0.10;0.10;;;;;;;;;;5032083;28;20096;-73
2022/10/27 02:08:23;;;;;;;0.10;0.10;;;;;;;;;;4971250;28;20502;-73
2022/10/27 02:10:49;;;;;;;0.10;0.10;;;;;;;;;;5006338;28;20432;-73
2022/10/27 02:13:14;;;;;;;0.10;0.10;;;;;;;;;;5032616;28;20018;-73
2022/10/27 02:15:46;;;;;;;0.10;0.10;;;;;;;;;;5015085;28;20030;-74
2022/10/27 02:18:16;;;;;;;0.20;0.20;;;;;;;;;;5032274;28;20032;-74
2022/10/27 02:20:44;;;;;;;1.83;1.75;;;;;;;;;;4999910;28;20033;-73
2022/10/27 02:23:13;;;;;;;2.28;1.20;;;;;;;;;;5012778;28;20022;-74
2022/10/27 02:25:39;;;;;;;;;;;;;;;;;;5013453;28;20026;-74
2022/10/27 02:28:06;;;;;;;16.05;3.10;;;;;;;;;;5013040;28;19924;-75
2022/10/27 02:30:32;;;;;;;0.20;0.20;;;;;;;;;;5013139;28;20029;-73
2022/10/27 02:32:58;;;;;;;0.20;0.20;;;;;;;;;;5018854;28;20113;-74
2022/10/27 02:35:23;;;;;;;1.38;1.27;;;;;;;;;;5010394;28;20156;-74
2022/10/27 02:37:49;;;;;;;0.20;0.20;;;;;;;;;;5011802;28;20176;-73
2022/10/27 02:40:14;;;;;;;0.20;0.20;;;;;;;;;;5011998;28;20041;-73
2022/10/27 02:42:40;;;;;;;0.30;0.30;;;;;;;;;;5011517;28;20159;-73
2022/10/27 02:45:05;;;;;;;0.20;0.20;;;;;;;;;;5012813;28;20037;-73
2022/10/27 02:47:31;;;;;;;0.10;0.10;;;;;;;;;;5014941;28;20029;-73
2022/10/27 02:49:56;;;;;;;0.65;0.65;;;;;;;;;;5018636;28;20480;-74
2022/10/27 02:52:22;;;;;;;3.58;2.65;;;;;;;;;;5036330;28;20022;-74
2022/10/27 02:54:47;;;;;;;0.10;0.10;;;;;;;;;;5018703;28;20036;-74
2022/10/27 02:57:14;;;;;;;0.10;0.10;;;;;;;;;;5036125;28;20025;-74
2022/10/27 02:59:39;;;;;;;0.10;0.10;;;;;;;;;;5018631;28;20029;-73
2022/10/27 03:02:05;;;;;;;0.10;0.10;;;;;;;;;;5034079;28;20022;-75
2022/10/27 03:04:30;;;;;;;0.10;0.10;;;;;;;;;;5012066;28;20026;-74
2022/10/27 03:06:56;;;;;;;0.40;0.40;;;;;;;;;;5030711;28;20468;-74
2022/10/27 03:09:21;;;;;;;0.10;0.10;;;;;;;;;;5032731;28;20749;-75
2022/10/27 03:11:46;;;;;;;0.10;0.10;;;;;;;;;;5030556;28;20056;-74
2022/10/27 03:14:12;;;;;;;0.60;0.60;;;;;;;;;;5032313;28;20029;-76
2022/10/27 03:16:37;;;;;;;0.10;0.10;;;;;;;;;;5032317;28;20033;-74
2022/10/27 03:19:03;;;;;;;0.20;0.20;;;;;;;;;;5031645;28;20028;-74
2022/10/27 03:21:28;;;;;;;0.20;0.20;;;;;;;;;;5028627;28;20044;-74
2022/10/27 03:23:53;;;;;;;0.10;0.10;;;;;;;;;;5031867;28;20025;-76
2022/10/27 03:26:19;;;;;;;0.10;0.10;;;;;;;;;;5012899;28;20408;-75
2022/10/27 03:28:44;;;;;;;0.10;0.10;;;;;;;;;;5014079;28;20052;-73
2022/10/27 03:31:10;;;;;;;0.95;0.85;;;;;;;;;;5031402;28;20037;-74
2022/10/27 03:33:35;;;;;;;0.10;0.10;;;;;;;;;;5032001;28;20028;-74
2022/10/27 03:36:01;;;;;;;1.80;1.73;;;;;;;;;;5030825;28;20017;-74
2022/10/27 03:38:26;;;;;;;0.13;0.13;;;;;;;;;;5030199;28;20025;-73
2022/10/27 03:40:51;;;;;;;0.38;0.38;;;;;;;;;;5031517;28;20029;-74
2022/10/27 03:43:17;;;;;;;0.88;0.88;;;;;;;;;;5031856;28;20037;-74
2022/10/27 03:45:45;;;;;;;0.10;0.10;;;;;;;;;;5031665;28;20040;-75
2022/10/27 03:48:11;;;;;;;0.10;0.10;;;;;;;;;;5013912;28;20411;-74
2022/10/27 03:50:37;;;;;;;0.10;0.10;;;;;;;;;;5030122;28;20017;-74
2022/10/27 03:53:03;;;;;;;0.10;0.10;;;;;;;;;;5031705;28;20026;-74
2022/10/27 03:55:29;;;;;;;0.10;0.10;;;;;;;;;;5031739;28;20041;-76
2022/10/27 03:57:54;;;;;;;0.10;0.10;;;;;;;;;;5031040;28;20080;-74
2022/10/27 04:00:20;;;;;;;0.20;0.20;;;;;;;;;;5029495;28;20041;-73
2022/10/27 04:02:45;;;;;;;0.20;0.20;;;;;;;;;;5031183;28;20108;-74
2022/10/27 04:05:11;;;;;;;0.50;0.50;;;;;;;;;;5030336;28;20037;-74
2022/10/27 04:07:36;;;;;;;1.40;1.38;;;;;;;;;;5030852;28;20030;-75
2022/10/27 04:10:02;;;;;;;0.20;0.20;;;;;;;;;;5031231;28;20350;-74
2022/10/27 04:12:27;;;;;;;0.10;0.10;;;;;;;;;;5029635;28;20018;-74
2022/10/27 04:14:53;;;;;;;0.88;0.88;;;;;;;;;;5030986;28;20075;-73
2022/10/27 04:17:18;;;;;;;0.30;0.30;;;;;;;;;;5031213;28;20029;-75
2022/10/27 04:19:44;;;;;;;3.72;1.60;;;;;;;;;;5030427;28;20144;-74
2022/10/27 04:22:09;;;;;;;0.22;0.22;;;;;;;;;;5029582;28;20388;-73
2022/10/27 04:24:35;;;;;;;0.38;0.38;;;;;;;;;;5030696;28;20572;-73
2022/10/27 04:27:00;;;;;;;0.32;0.32;;;;;;;;;;5012971;28;20496;-72
2022/10/27 04:29:26;;;;;;;0.30;0.30;;;;;;;;;;5030639;28;20457;-72
2022/10/27 04:31:51;;;;;;;0.20;0.20;;;;;;;;;;5013309;28;20025;-73
2022/10/27 04:34:17;;;;;;;0.10;0.10;;;;;;;;;;5030865;28;20104;-74
2022/10/27 04:36:42;;;;;;;0.25;0.25;;;;;;;;;;5029726;28;20499;-73
2022/10/27 04:39:12;;;;;;;0.17;0.17;;;;;;;;;;5029903;28;20048;-74
2022/10/27 04:41:38;;;;;;;0.10;0.10;;;;;;;;;;5017983;28;20105;-74
2022/10/27 04:44:04;;;;;;;0.85;0.85;;;;;;;;;;5020528;28;20485;-73
2022/10/27 04:46:29;;;;;;;0.10;0.10;;;;;;;;;;5034483;28;20036;-73
2022/10/27 04:48:55;;;;;;;0.28;0.28;;;;;;;;;;5030485;28;20037;-73
2022/10/27 04:51:20;;;;;;;0.50;0.50;;;;;;;;;;5029564;28;20038;-73
2022/10/27 04:53:46;;;;;;;0.10;0.10;;;;;;;;;;5030396;28;20063;-74
2022/10/27 04:56:11;;;;;;;0.43;0.43;;;;;;;;;;5030411;28;20366;-74
2022/10/27 04:58:36;;;;;;;2.28;2.17;;;;;;;;;;5030204;28;20539;-73
2022/10/27 05:01:09;;;;;;;2.53;1.30;;;;;;;;;;5008730;28;20040;-73
2022/10/27 05:03:34;;;;;;;0.73;0.73;;;;;;;;;;5010232;28;20032;-73
2022/10/27 05:06:00;;;;;;;0.20;0.20;;;;;;;;;;5020631;28;20385;-73
2022/10/27 05:08:25;;;;;;;0.57;0.57;;;;;;;;;;5029593;28;20034;-73
2022/10/27 05:10:51;;;;;;;0.10;0.10;;;;;;;;;;5006878;28;20062;-74
2022/10/27 05:13:16;;;;;;;0.10;0.10;;;;;;;;;;5014629;28;20088;-72
2022/10/27 05:15:41;;;;;;;6.13;5.57;;;;;;;;;;5027772;28;20030;-72
2022/10/27 05:18:07;;;;;;;3.00;1.67;;;;;;;;;;5028559;28;20024;-72
2022/10/27 05:20:32;;;;;;;0.20;0.20;;;;;;;;;;5009619;28;20072;-72
2022/10/27 05:22:58;;;;;;;25.13;5.68;;;;;;;;;;5027143;28;20112;-73
2022/10/27 05:25:23;;;;;;;0.20;0.20;;;;;;;;;;5029425;28;20053;-73
2022/10/27 05:27:49;;;;;;;0.10;0.10;;;;;;;;;;5029351;28;20056;-72
2022/10/27 05:30:14;;;;;;;0.20;0.20;;;;;;;;;;5028669;28;20021;-74
2022/10/27 05:32:40;;;;;;;0.20;0.20;;;;;;;;;;5009940;28;20061;-73
2022/10/27 05:35:06;;;;;;;0.20;0.20;;;;;;;;;;5010106;28;20034;-73
2022/10/27 05:37:31;;;;;;;0.15;0.15;;;;;;;;;;5027376;28;20163;-73
2022/10/27 05:39:56;;;;;;;0.30;0.30;;;;;;;;;;5024232;28;20075;-74
2022/10/27 05:42:22;;;;;;;0.20;0.20;;;;;;;;;;5017917;28;20424;-73
2022/10/27 05:44:47;;;;;;;0.30;0.30;;;;;;;;;;5028472;28;20029;-73
2022/10/27 05:47:13;;;;;;;0.47;0.47;;;;;;;;;;5029112;28;20065;-74
2022/10/27 05:49:38;;;;;;;0.20;0.20;;;;;;;;;;5029989;28;20055;-73
2022/10/27 05:52:04;;;;;;;1.60;1.55;;;;;;;;;;5024445;28;20500;-73
2022/10/27 05:54:29;;;;;;;1.38;1.00;;;;;;;;;;4991637;28;20052;-73
2022/10/27 05:56:55;;;;;;;0.10;0.10;;;;;;;;;;5009680;28;20028;-73
2022/10/27 05:59:20;;;;;;;0.20;0.20;;;;;;;;;;5017203;28;20048;-73
2022/10/27 06:01:45;;;;;;;0.30;0.30;;;;;;;;;;5009770;28;20380;-73
2022/10/27 06:04:11;;;;;;;1.85;1.75;;;;;;;;;;5029393;28;20021;-72
2022/10/27 06:06:36;;;;;;;0.17;0.17;;;;;;;;;;5025995;28;20898;-72
2022/10/27 06:09:02;;;;;;;0.17;0.17;;;;;;;;;;5027907;28;20433;-73
2022/10/27 06:11:27;;;;;;;0.68;0.68;;;;;;;;;;5011307;28;20119;-72
2022/10/27 06:13:53;;;;;;;0.32;0.30;;;;;;;;;;5029622;28;20366;-73
2022/10/27 06:16:24;;;;;;;0.20;0.20;;;;;;;;;;5028851;28;20033;-73
2022/10/27 06:18:51;;;;;;;0.13;0.13;;;;;;;;;;5029276;28;20101;-74
2022/10/27 06:21:17;;;;;;;0.40;0.40;;;;;;;;;;5026176;28;20034;-73
2022/10/27 06:23:42;;;;;;;0.28;0.28;;;;;;;;;;5032529;28;20029;-73
2022/10/27 06:26:09;;;;;;;0.63;0.63;;;;;;;;;;5032722;28;20032;-72
2022/10/27 06:28:35;;;;;;;0.20;0.20;;;;;;;;;;5015138;28;20489;-74
2022/10/27 06:31:00;;;;;;;3.22;1.27;;;;;;;;;;5010598;28;20117;-74
2022/10/27 06:33:25;;;;;;;0.65;0.65;;;;;;;;;;5013602;28;20037;-74
2022/10/27 06:35:51;;;;;;;0.17;0.17;;;;;;;;;;5024356;28;20025;-73
2022/10/27 06:38:17;;;;;;;0.17;0.17;;;;;;;;;;5014694;28;20406;-74
2022/10/27 06:40:43;;;;;;;1.85;1.75;;;;;;;;;;5032550;28;20029;-75
2022/10/27 06:43:09;;;;;;;0.20;0.20;;;;;;;;;;5014262;28;20119;-77
2022/10/27 06:45:35;;;;;;;0.13;0.13;;;;;;;;;;5031661;28;20040;-74
2022/10/27 06:48:03;;;;;;;0.30;0.30;;;;;;;;;;5032387;28;20049;-75
2022/10/27 06:50:28;;;;;;;0.20;0.20;;;;;;;;;;5028898;28;20052;-74
2022/10/27 06:52:54;;;;;;;0.10;0.10;;;;;;;;;;5032242;28;20548;-75
2022/10/27 06:55:19;;;;;;;0.10;0.10;;;;;;;;;;5030469;28;20120;-74
2022/10/27 06:57:45;;;;;;;0.10;0.10;;;;;;;;;;5024696;28;20060;-74
2022/10/27 07:00:11;;;;;;;1.75;1.65;;;;;;;;;;5014017;28;20094;-74
2022/10/27 07:02:36;;;;;;;0.30;0.30;;;;;;;;;;5022345;28;20041;-74
2022/10/27 07:05:02;;;;;;;24.75;6.53;;;;;;;;;;5032468;28;20060;-74
2022/10/27 07:07:28;;;;;;;0.20;0.20;;;;;;;;;;5032296;28;20021;-75
2022/10/27 07:09:53;;;;;;;2.83;2.70;;;;;;;;;;5032132;28;20117;-74
2022/10/27 07:12:19;;;;;;;0.20;0.20;;;;;;;;;;5032440;28;20480;-73
2022/10/27 07:14:44;;;;;;;0.20;0.20;;;;;;;;;;5032060;28;20063;-73
2022/10/27 07:17:09;;;;;;;0.57;0.57;;;;;;;;;;5015158;28;20041;-72
2022/10/27 07:19:35;;;;;;;0.10;0.10;;;;;;;;;;5032073;28;20501;-73
2022/10/27 07:22:00;;;;;;;7.28;2.92;;;;;;;;;;5014386;28;20620;-73
2022/10/27 07:24:26;;;;;;;0.75;0.75;;;;;;;;;;5031692;28;20379;-74
2022/10/27 07:26:51;;;;;;;0.30;0.30;;;;;;;;;;5014171;28;20033;-73
2022/10/27 07:29:16;;;;;;;1.20;1.20;;;;;;;;;;5014641;28;20034;-73
2022/10/27 07:31:42;;;;;;;0.50;0.50;;;;;;;;;;5024121;28;20366;-73
2022/10/27 07:34:08;;;;;;;0.55;0.55;;;;;;;;;;5014358;28;20355;-74
2022/10/27 07:36:34;;;;;;;0.30;0.30;;;;;;;;;;5011922;28;20036;-73
2022/10/27 07:38:59;;;;;;;1.45;1.25;;;;;;;;;;5011703;28;20275;-72
2022/10/27 07:41:24;;;;;;;0.17;0.17;;;;;;;;;;4994245;28;20050;-74
2022/10/27 07:43:50;;;;;;;4.22;3.05;;;;;;;;;;5011593;28;20056;-73
2022/10/27 07:46:15;;;;;;;0.20;0.20;;;;;;;;;;5009821;28;20373;-73
2022/10/27 07:48:41;;;;;;;0.20;0.20;;;;;;;;;;5011248;28;20053;-76
2022/10/27 07:51:06;;;;;;;0.10;0.10;;;;;;;;;;5011177;28;20041;-74
2022/10/27 07:53:31;;;;;;;0.40;0.40;;;;;;;;;;5009982;28;20080;-74
2022/10/27 07:55:57;;;;;;;4.68;3.20;;;;;;;;;;5011684;28;20473;-75
2022/10/27 07:58:23;;;;;;;0.20;0.20;;;;;;;;;;5011471;28;20421;-74
2022/10/27 08:00:48;;;;;;;0.82;0.82;;;;;;;;;;5010825;28;20033;-74
2022/10/27 08:03:16;;;;;;;0.30;0.30;;;;;;;;;;5009374;28;20026;-74
2022/10/27 08:05:42;;;;;;;1.65;1.55;;;;;;;;;;5009486;28;20018;-75
2022/10/27 08:08:07;;;;;;;0.20;0.20;;;;;;;;;;5009758;28;20038;-73
2022/10/27 08:10:34;;;;;;;0.35;0.35;;;;;;;;;;5008780;28;20470;-72
2022/10/27 08:13:00;;;;;;;0.10;0.10;;;;;;;;;;4992009;28;20022;-73
2022/10/27 08:15:25;;;;;;;0.20;0.20;;;;;;;;;;5009889;28;20034;-74
2022/10/27 08:17:56;;;;;;;0.20;0.20;;;;;;;;;;4993730;28;20096;-73
2022/10/27 08:20:22;;;;;;;0.20;0.20;;;;;;;;;;4993435;28;20121;-73
2022/10/27 08:22:57;;;;;;;0.90;0.85;;;;;;;;;;4994199;28;20018;-72
2022/10/27 08:25:23;;;;;;;3.28;2.85;;;;;;;;;;5011544;28;20116;-73
2022/10/27 08:27:48;;;;;;;0.98;0.98;;;;;;;;;;5010140;28;20125;-72
2022/10/27 08:30:14;;;;;;;0.80;0.80;;;;;;;;;;5010852;28;20054;-73
2022/10/27 08:32:39;;;;;;;0.20;0.20;;;;;;;;;;5010722;28;20034;-73
2022/10/27 08:35:05;;;;;;;2.08;1.98;;;;;;;;;;4993361;28;20085;-73
2022/10/27 08:37:30;;;;;;;1.83;1.13;;;;;;;;;;5011050;28;20029;-72
2022/10/27 08:39:56;;;;;;;6.90;3.50;;;;;;;;;;5010719;28;20108;-73
2022/10/27 08:42:36;;;;;;;0.20;0.20;;;;;;;;;;4993154;28;20046;-73
2022/10/27 08:45:06;;;;;;;5.80;5.25;;;;;;;;;;4993110;28;20036;-73
2022/10/27 08:47:31;;;;;;;3.25;2.95;;;;;;;;;;5010428;28;20025;-73
2022/10/27 08:50:02;;;;;;;0.30;0.30;;;;;;;;;;5010532;28;20049;-72
2022/10/27 08:52:37;;;;;;;0.20;0.20;;;;;;;;;;5010069;28;20022;-74
2022/10/27 08:55:11;;;;;;;0.50;0.50;;;;;;;;;;5009375;28;20113;-73
2022/10/27 08:57:37;;;;;;;0.30;0.30;;;;;;;;;;5010942;28;20041;-73
2022/10/27 09:00:05;;;;;;;0.20;0.20;;;;;;;;;;4993146;28;20033;-73
2022/10/27 09:02:31;;;;;;;1.20;1.10;;;;;;;;;;4992999;28;20045;-72
2022/10/27 09:04:59;;;;;;;0.20;0.20;;;;;;;;;;5010364;28;20022;-74
2022/10/27 09:07:46;;;;;;;0.20;0.20;;;;;;;;;;5010251;28;20126;-73
2022/10/27 09:10:27;;;;;;;0.22;0.22;;;;;;;;;;5010383;28;20084;-73
2022/10/27 09:13:11;;;;;;;0.50;0.50;;;;;;;;;;4992576;28;20032;-73
2022/10/27 09:15:45;;;;;;;9.75;5.43;;;;;;;;;;5009934;28;20034;-72
2022/10/27 09:18:13;;;;;;;0.20;0.20;;;;;;;;;;5010017;28;20026;-73
2022/10/27 09:20:44;;;;;;;0.20;0.20;;;;;;;;;;5009919;28;20022;-72
2022/10/27 09:23:14;;;;;;;0.20;0.20;;;;;;;;;;5010665;28;20069;-73
2022/10/27 09:25:40;;;;;;;1.65;0.30;;;;;;;;;;5010490;28;20073;-73
2022/10/27 09:28:10;;;;;;;0.43;0.43;;;;;;;;;;4991975;28;20164;-74
2022/10/27 09:30:35;;;;;;;;;;;;;;;;;;5009887;28;20496;-73
2022/10/27 09:33:00;;;;;;;0.20;0.20;;;;;;;;;;5009738;28;19909;-73
2022/10/27 09:35:27;;;;;;;0.10;0.10;;;;;;;;;;5009747;28;20034;-73
2022/10/27 09:37:55;;;;;;;0.20;0.20;;;;;;;;;;5009778;28;20034;-73
2022/10/27 09:40:21;;;;;;;0.50;0.50;;;;;;;;;;5009567;28;20033;-73
2022/10/27 09:42:49;;;;;;;0.20;0.20;;;;;;;;;;4988289;28;20050;-72
2022/10/27 09:45:16;;;;;;;0.20;0.20;;;;;;;;;;4989000;28;20034;-72
2022/10/27 09:47:43;;;;;;;0.10;0.10;;;;;;;;;;4989796;28;20085;-72
2022/10/27 09:50:15;;;;;;;0.20;0.20;;;;;;;;;;4990146;28;20938;-72
2022/10/27 09:52:42;;;;;;;1.00;0.93;;;;;;;;;;4972411;28;20141;-72
2022/10/27 09:55:08;;;;;;;0.20;0.20;;;;;;;;;;4989752;28;20026;-72
2022/10/27 09:57:36;;;;;;;0.40;0.40;;;;;;;;;;4989044;28;20045;-72
2022/10/27 10:00:07;;;;;;;0.20;0.20;;;;;;;;;;4990105;28;20113;-74
2022/10/27 10:02:40;;;;;;;0.40;0.40;;;;;;;;;;4988778;28;20035;-74
2022/10/27 10:05:19;;;;;;;0.20;0.20;;;;;;;;;;4989782;28;20045;-74
2022/10/27 10:07:45;;;;;;;0.20;0.20;;;;;;;;;;4995621;28;20042;-74
2022/10/27 10:10:29;;;;;;;0.20;0.20;;;;;;;;;;4997786;28;20122;-73
2022/10/27 10:13:01;;;;;;;0.20;0.20;;;;;;;;;;4989900;28;20387;-74
2022/10/27 10:15:27;;;;;;;1.35;1.25;;;;;;;;;;4990073;28;20025;-73
2022/10/27 10:17:54;;;;;;;1.50;1.40;;;;;;;;;;4990109;28;20030;-73
2022/10/27 10:20:25;;;;;;;0.20;0.20;;;;;;;;;;4989562;28;20014;-72
2022/10/27 10:22:51;;;;;;;1.15;1.08;;;;;;;;;;4989938;28;20030;-73
2022/10/27 10:25:21;;;;;;;0.17;0.17;;;;;;;;;;5005040;28;20375;-72
2022/10/27 10:27:54;;;;;;;1.48;1.38;;;;;;;;;;5004762;28;20038;-73
2022/10/27 10:30:19;;;;;;;0.20;0.20;;;;;;;;;;5004938;28;20065;-73
2022/10/27 10:32:49;;;;;;;0.20;0.20;;;;;;;;;;4989708;28;20065;-73
2022/10/27 10:35:35;;;;;;;0.22;0.20;;;;;;;;;;4972581;28;20367;-73
2022/10/27 10:38:00;;;;;;;4.78;3.20;;;;;;;;;;4979145;28;20084;-73
2022/10/27 10:40:26;;;;;;;1.35;1.25;;;;;;;;;;4989374;28;20062;-73
2022/10/27 10:43:03;;;;;;;0.20;0.20;;;;;;;;;;5018992;28;20045;-72
2022/10/27 10:45:32;;;;;;;0.30;0.30;;;;;;;;;;5009069;28;20038;-74
2022/10/27 10:47:58;;;;;;;;;;;;;;;;;;5009954;28;20358;-73
2022/10/27 10:50:24;;;;;;;0.20;0.20;;;;;;;;;;5008809;28;19915;-73
2022/10/27 10:52:51;;;;;;;0.30;0.30;;;;;;;;;;5009034;28;20013;-73
2022/10/27 10:55:18;;;;;;;0.22;0.22;;;;;;;;;;5007930;28;20133;-73
2022/10/27 10:57:45;;;;;;;0.20;0.20;;;;;;;;;;5008777;28;20109;-72
2022/10/27 11:00:14;;;;;;;0.95;0.93;;;;;;;;;;5008913;28;20117;-73
2022/10/27 11:02:40;;;;;;;1.15;1.05;;;;;;;;;;5008850;28;20068;-73
2022/10/27 11:05:10;;;;;;;4.25;3.67;;;;;;;;;;5008877;28;20469;-72
2022/10/27 11:07:36;;;;;;;2.53;1.90;;;;;;;;;;5009580;28;20055;-72
2022/10/27 11:10:17;;;;;;;0.20;0.20;;;;;;;;;;5012837;28;20036;-73
2022/10/27 11:12:45;;;;;;;4.22;2.38;;;;;;;;;;5012034;28;20054;-74
2022/10/27 11:15:16;;;;;;;12.38;2.65;;;;;;;;;;5027214;28;20044;-74
2022/10/27 11:17:44;;;;;;;0.20;0.20;;;;;;;;;;5012140;28;20033;-73
2022/10/27 11:20:18;;;;;;;3.85;1.48;;;;;;;;;;5012748;28;20034;-73
2022/10/27 11:22:43;;;;;;;0.20;0.20;;;;;;;;;;5012416;28;20022;-74
2022/10/27 11:25:15;;;;;;;0.20;0.20;;;;;;;;;;5012225;28;20701;-73
2022/10/27 11:27:45;;;;;;;0.40;0.40;;;;;;;;;;5011864;28;20042;-74
2022/10/27 11:30:21;;;;;;;0.47;0.47;;;;;;;;;;5012046;28;20080;-73
2022/10/27 11:33:05;;;;;;;3.92;2.05;;;;;;;;;;5012038;28;20381;-73
2022/10/27 11:35:30;;;;;;;0.32;0.32;;;;;;;;;;5011625;28;20036;-73
2022/10/27 11:37:55;;;;;;;1.17;1.17;;;;;;;;;;5012370;28;20018;-73
2022/10/27 11:40:41;;;;;;;0.68;0.68;;;;;;;;;;5011570;28;20053;-73
2022/10/27 11:43:11;;;;;;;0.30;0.30;;;;;;;;;;5004249;28;20390;-72
2022/10/27 11:45:55;;;;;;;0.88;0.82;;;;;;;;;;5010335;28;20117;-73
2022/10/27 11:48:32;;;;;;;1.00;0.90;;;;;;;;;;5011529;28;20124;-72
2022/10/27 11:51:02;;;;;;;3.15;1.52;;;;;;;;;;5010546;28;20029;-72
2022/10/27 11:53:27;;;;;;;2.65;1.58;;;;;;;;;;5010675;28;20064;-72
2022/10/27 11:55:59;;;;;;;0.35;0.35;;;;;;;;;;5012135;28;20561;-72
2022/10/27 11:58:43;;;;;;;0.20;0.20;;;;;;;;;;5011327;28;20478;-73
2022/10/27 12:01:08;;;;;;;5.03;3.28;;;;;;;;;;5011287;28;20029;-72
2022/10/27 12:03:34;;;;;;;0.30;0.30;;;;;;;;;;5011602;28;20124;-72
2022/10/27 12:06:07;;;;;;;6.05;4.03;;;;;;;;;;5011526;28;20042;-73
2022/10/27 12:08:38;;;;;;;8.20;3.25;;;;;;;;;;5011197;28;20037;-73
2022/10/27 12:11:22;;;;;;;6.30;3.03;;;;;;;;;;5011605;28;20034;-72
2022/10/27 12:13:47;;;;;;;0.30;0.30;;;;;;;;;;5010996;28;20048;-72
2022/10/27 12:16:27;;;;;;;0.95;0.93;;;;;;;;;;5011173;28;20026;-72
2022/10/27 12:18:55;;;;;;;2.95;2.25;;;;;;;;;;5009895;28;20432;-72
2022/10/27 12:21:40;;;;;;;12.85;4.53;;;;;;;;;;5010872;28;20026;-72
2022/10/27 12:24:06;;;;;;;2.75;1.80;;;;;;;;;;5010915;28;20113;-72
2022/10/27 12:26:49;;;;;;;0.20;0.20;;;;;;;;;;5010734;28;20120;-72
2022/10/27 12:29:15;;;;;;;2.92;1.40;;;;;;;;;;5011099;28;20111;-72
2022/10/27 12:31:52;;;;;;;4.68;3.70;;;;;;;;;;5026028;28;20038;-72
2022/10/27 12:34:20;;;;;;;0.65;0.65;;;;;;;;;;5025674;28;20692;-72
2022/10/27 12:36:51;;;;;;;44.58;3.95;;;;;;;;;;5010925;28;20017;-72
2022/10/27 12:39:22;;;;;;;2.45;2.25;;;;;;;;;;5011065;28;20037;-73
2022/10/27 12:41:54;;;;;;;0.40;0.40;;;;;;;;;;5016201;28;20123;-73
2022/10/27 12:44:38;;;;;;;0.30;0.30;;;;;;;;;;5030706;28;20136;-72
2022/10/27 12:47:09;;;;;;;8.55;2.13;;;;;;;;;;5030471;28;20041;-72
2022/10/27 12:49:38;;;;;;;2.17;1.95;;;;;;;;;;5030161;28;20078;-72
2022/10/27 12:52:10;;;;;;;8.35;2.10;;;;;;;;;;5030560;28;20021;-72
2022/10/27 12:54:35;;;;;;;10.73;3.28;;;;;;;;;;5030350;28;20377;-72
2022/10/27 12:57:07;;;;;;;0.75;0.73;;;;;;;;;;5028635;28;20017;-73
2022/10/27 12:59:51;;;;;;;3.28;1.38;;;;;;;;;;5030135;28;20033;-72
2022/10/27 13:02:18;;;;;;;5.00;3.60;;;;;;;;;;5029846;28;20025;-72
2022/10/27 13:04:58;;;;;;;3.90;2.17;;;;;;;;;;5029708;28;20030;-72
2022/10/27 13:07:42;;;;;;;0.30;0.30;;;;;;;;;;5029886;28;20033;-73
2022/10/27 13:10:48;;;;;;;6.97;2.35;;;;;;;;;;5029989;28;20021;-73
2022/10/27 13:13:16;;;;;;;1.80;1.65;;;;;;;;;;4933138;29;20499;-72
2022/10/27 13:15:46;;;;;;;22.90;6.10;;;;;;;;;;4949637;29;20530;-71
2022/10/27 13:18:14;;;;;;;0.38;0.38;;;;;;;;;;4972841;28;20037;-71
2022/10/27 13:20:49;;;;;;;0.40;0.40;;;;;;;;;;5029354;28;20025;-72
2022/10/27 13:23:38;;;;;;;3.92;3.63;;;;;;;;;;5029656;28;20034;-73
2022/10/27 13:26:21;;;;;;;4.00;1.95;;;;;;;;;;5019166;28;20046;-73
2022/10/27 13:28:55;;;;;;;6.50;3.15;;;;;;;;;;5029489;28;20041;-73
2022/10/27 13:31:22;;;;;;;6.38;1.92;;;;;;;;;;5011586;28;20479;-74
2022/10/27 13:33:58;;;;;;;0.47;0.40;;;;;;;;;;5029742;28;20037;-72
2022/10/27 13:36:25;;;;;;;2.70;1.70;;;;;;;;;;5027850;28;20030;-72
2022/10/27 13:39:11;;;;;;;1.05;1.05;;;;;;;;;;5029323;28;20108;-73
2022/10/27 13:41:51;;;;;;;2.50;1.77;;;;;;;;;;5029134;28;20184;-72
2022/10/27 13:44:38;;;;;;;0.82;0.80;;;;;;;;;;5029082;28;20484;-71
2022/10/27 13:47:04;;;;;;;9.00;4.97;;;;;;;;;;5027816;28;20440;-73
2022/10/27 13:49:39;;;;;;;27.33;3.35;;;;;;;;;;5028891;28;20046;-73
2022/10/27 13:52:16;;;;;;;11.07;3.80;;;;;;;;;;5028853;28;20040;-72
2022/10/27 13:54:52;;;;;;;10.50;3.42;;;;;;;;;;5028540;28;20500;-72
2022/10/27 13:57:30;;;;;;;8.85;4.47;;;;;;;;;;5028851;28;20026;-72
2022/10/27 14:00:02;;;;;;;15.10;2.72;;;;;;;;;;5029304;28;20022;-73
2022/10/27 14:02:55;;;;;;;6.70;5.15;;;;;;;;;;5028447;28;20041;-73
2022/10/27 14:05:24;;;;;;;9.68;3.60;;;;;;;;;;5015179;28;20087;-72
2022/10/27 14:07:49;;;;;;;;;;;;;;;;;;5029239;28;20037;-72
2022/10/27 14:10:15;;;;;;;4.50;2.63;;;;;;;;;;5028809;28;19966;-72
2022/10/27 14:12:40;;;;;;;8.88;2.33;;;;;;;;;;5028553;28;20260;-73
2022/10/27 14:15:23;;;;;;;0.90;0.55;;;;;;;;;;5029118;28;20022;-70
2022/10/27 14:17:49;;;;;;;8.82;7.07;;;;;;;;;;5028716;28;20037;-75
2022/10/27 14:20:21;;;;;;;10.00;3.38;;;;;;;;;;5029015;28;20033;-72
2022/10/27 14:22:49;;;;;;;4.82;3.90;;;;;;;;;;5028892;28;20483;-73
2022/10/27 14:25:14;;;;;;;5.55;3.83;;;;;;;;;;5027513;28;20025;-73
2022/10/27 14:27:39;;;;;;;12.50;3.90;;;;;;;;;;5028255;28;20551;-72
2022/10/27 14:30:13;;;;;;;2.95;2.72;;;;;;;;;;5029071;28;20431;-72
2022/10/27 14:32:38;;;;;;;25.20;3.53;;;;;;;;;;5029084;28;20044;-73
2022/10/27 14:35:20;;;;;;;2.15;1.67;;;;;;;;;;5027769;28;20014;-72
2022/10/27 14:37:45;;;;;;;8.40;1.80;;;;;;;;;;5028884;28;20469;-72
2022/10/27 14:40:16;;;;;;;0.20;0.20;;;;;;;;;;5029004;28;20022;-72
2022/10/27 14:42:41;;;;;;;7.00;3.78;;;;;;;;;;5029096;28;20056;-72
2022/10/27 14:45:20;;;;;;;9.68;4.75;;;;;;;;;;5032585;28;20116;-72
2022/10/27 14:47:52;;;;;;;18.15;3.92;;;;;;;;;;5032198;28;20048;-74
2022/10/27 14:50:25;;;;;;;1.73;1.38;;;;;;;;;;5014681;28;20489;-73
2022/10/27 14:52:54;;;;;;;7.10;0.90;;;;;;;;;;5032904;28;20043;-72